sensor_id;sensor_type;location;lat;lon;timestamp;P1;durP1;ratioP1;P2;durP2;ratioP2
16543;SDS011;8384;47.996;7.786;2024-03-22T00:01:48;6.70;;;6.00;;
16543;SDS011;8384;47.996;7.786;2024-03-22T00:04:15;7.60;;;5.80;;
16543;SDS011;8384;47.996;7.786;2024-03-22T00:06:41;6.70;;;5.10;;
16543;SDS011;8384;47.996;7.786;2024-03-22T00:09:07;5.00;;;4.50;;
16543;SDS011;8384;47.996;7.786;2024-03-22T00:11:32;6.00;;;4.47;;
16543;SDS011;8384;47.996;7.786;2024-03-22T00:13:58;5.10;;;4.60;;
16543;SDS011;8384;47.996;7.786;2024-03-22T00:16:23;6.33;;;4.60;;
16543;SDS011;8384;47.996;7.786;2024-03-22T00:18:48;5.87;;;4.30;;
16543;SDS011;8384;47.996;7.786;2024-03-22T00:21:14;4.90;;;4.43;;
16543;SDS011;8384;47.996;7.786;2024-03-22T00:23:39;5.10;;;4.60;;
16543;SDS011;8384;47.996;7.786;2024-03-22T00:26:04;4.63;;;4.13;;
16543;SDS011;8384;47.996;7.786;2024-03-22T00:28:29;4.73;;;4.33;;
16543;SDS011;8384;47.996;7.786;2024-03-22T00:30:55;4.63;;;4.17;;
16543;SDS011;8384;47.996;7.786;2024-03-22T00:33:20;5.03;;;4.50;;
16543;SDS011;8384;47.996;7.786;2024-03-22T00:35:45;4.37;;;4.00;;
16543;SDS011;8384;47.996;7.786;2024-03-22T00:38:10;6.57;;;4.30;;
16543;SDS011;8384;47.996;7.786;2024-03-22T00:40:36;5.10;;;3.80;;
16543;SDS011;8384;47.996;7.786;2024-03-22T00:43:01;4.40;;;4.00;;
16543;SDS011;8384;47.996;7.786;2024-03-22T00:45:26;5.33;;;4.30;;
16543;SDS011;8384;47.996;7.786;2024-03-22T00:47:51;5.40;;;4.70;;
16543;SDS011;8384;47.996;7.786;2024-03-22T00:50:17;6.33;;;4.60;;
16543;SDS011;8384;47.996;7.786;2024-03-22T00:52:42;4.77;;;4.27;;
16543;SDS011;8384;47.996;7.786;2024-03-22T00:55:07;6.33;;;4.77;;
16543;SDS011;8384;47.996;7.786;2024-03-22T00:57:33;5.77;;;4.60;;
16543;SDS011;8384;47.996;7.786;2024-03-22T00:59:58;5.40;;;4.47;;
16543;SDS011;8384;47.996;7.786;2024-03-22T01:02:23;4.57;;;4.00;;
16543;SDS011;8384;47.996;7.786;2024-03-22T01:04:49;4.80;;;4.30;;
16543;SDS011;8384;47.996;7.786;2024-03-22T01:07:14;5.17;;;4.67;;
16543;SDS011;8384;47.996;7.786;2024-03-22T01:09:39;5.33;;;3.97;;
16543;SDS011;8384;47.996;7.786;2024-03-22T01:12:04;5.00;;;4.37;;
16543;SDS011;8384;47.996;7.786;2024-03-22T01:14:30;5.57;;;4.43;;
16543;SDS011;8384;47.996;7.786;2024-03-22T01:16:55;5.33;;;3.87;;
16543;SDS011;8384;47.996;7.786;2024-03-22T01:19:22;5.67;;;4.50;;
16543;SDS011;8384;47.996;7.786;2024-03-22T01:21:47;6.53;;;4.40;;
16543;SDS011;8384;47.996;7.786;2024-03-22T01:24:13;4.87;;;4.40;;
16543;SDS011;8384;47.996;7.786;2024-03-22T01:26:38;7.30;;;4.23;;
16543;SDS011;8384;47.996;7.786;2024-03-22T01:29:03;5.63;;;4.10;;
16543;SDS011;8384;47.996;7.786;2024-03-22T01:31:29;4.40;;;4.00;;
16543;SDS011;8384;47.996;7.786;2024-03-22T01:33:54;4.60;;;3.63;;
16543;SDS011;8384;47.996;7.786;2024-03-22T01:36:19;5.27;;;4.10;;
16543;SDS011;8384;47.996;7.786;2024-03-22T01:38:45;5.47;;;4.07;;
16543;SDS011;8384;47.996;7.786;2024-03-22T01:41:10;4.57;;;4.17;;
16543;SDS011;8384;47.996;7.786;2024-03-22T01:43:35;4.63;;;4.00;;
16543;SDS011;8384;47.996;7.786;2024-03-22T01:46:01;4.13;;;3.80;;
16543;SDS011;8384;47.996;7.786;2024-03-22T01:48:26;4.73;;;4.23;;
16543;SDS011;8384;47.996;7.786;2024-03-22T01:50:52;6.30;;;4.20;;
16543;SDS011;8384;47.996;7.786;2024-03-22T01:53:17;4.77;;;4.27;;
16543;SDS011;8384;47.996;7.786;2024-03-22T01:55:43;4.97;;;4.20;;
16543;SDS011;8384;47.996;7.786;2024-03-22T01:58:08;4.93;;;4.43;;
16543;SDS011;8384;47.996;7.786;2024-03-22T02:00:34;6.37;;;4.20;;
16543;SDS011;8384;47.996;7.786;2024-03-22T02:02:59;4.87;;;4.20;;
16543;SDS011;8384;47.996;7.786;2024-03-22T02:05:25;4.50;;;4.10;;
16543;SDS011;8384;47.996;7.786;2024-03-22T02:07:50;6.37;;;4.50;;
16543;SDS011;8384;47.996;7.786;2024-03-22T02:10:17;5.53;;;4.03;;
16543;SDS011;8384;47.996;7.786;2024-03-22T02:12:42;6.87;;;4.73;;
16543;SDS011;8384;47.996;7.786;2024-03-22T02:15:08;5.67;;;4.47;;
16543;SDS011;8384;47.996;7.786;2024-03-22T02:17:33;6.07;;;4.83;;
16543;SDS011;8384;47.996;7.786;2024-03-22T02:20:00;4.90;;;4.50;;
16543;SDS011;8384;47.996;7.786;2024-03-22T02:22:27;5.70;;;4.50;;
16543;SDS011;8384;47.996;7.786;2024-03-22T02:24:52;8.13;;;4.30;;
16543;SDS011;8384;47.996;7.786;2024-03-22T02:27:18;5.70;;;4.43;;
16543;SDS011;8384;47.996;7.786;2024-03-22T02:29:43;4.93;;;4.43;;
16543;SDS011;8384;47.996;7.786;2024-03-22T02:32:09;5.87;;;4.77;;
16543;SDS011;8384;47.996;7.786;2024-03-22T02:34:35;5.30;;;4.33;;
16543;SDS011;8384;47.996;7.786;2024-03-22T02:37:00;4.87;;;4.37;;
16543;SDS011;8384;47.996;7.786;2024-03-22T02:39:25;5.60;;;5.10;;
16543;SDS011;8384;47.996;7.786;2024-03-22T02:41:51;5.93;;;4.47;;
16543;SDS011;8384;47.996;7.786;2024-03-22T02:44:16;4.70;;;4.20;;
16543;SDS011;8384;47.996;7.786;2024-03-22T02:46:41;5.90;;;4.63;;
16543;SDS011;8384;47.996;7.786;2024-03-22T02:49:07;5.53;;;4.13;;
16543;SDS011;8384;47.996;7.786;2024-03-22T02:51:32;5.13;;;4.63;;
16543;SDS011;8384;47.996;7.786;2024-03-22T02:53:58;5.30;;;4.80;;
16543;SDS011;8384;47.996;7.786;2024-03-22T02:56:23;9.80;;;5.20;;
16543;SDS011;8384;47.996;7.786;2024-03-22T02:58:51;11.10;;;6.10;;
16543;SDS011;8384;47.996;7.786;2024-03-22T03:01:16;5.80;;;5.20;;
16543;SDS011;8384;47.996;7.786;2024-03-22T03:03:42;6.37;;;4.90;;
16543;SDS011;8384;47.996;7.786;2024-03-22T03:06:07;7.63;;;5.70;;
16543;SDS011;8384;47.996;7.786;2024-03-22T03:08:33;5.10;;;4.60;;
16543;SDS011;8384;47.996;7.786;2024-03-22T03:10:59;5.90;;;4.60;;
16543;SDS011;8384;47.996;7.786;2024-03-22T03:13:24;6.63;;;5.90;;
16543;SDS011;8384;47.996;7.786;2024-03-22T03:15:49;5.77;;;5.27;;
16543;SDS011;8384;47.996;7.786;2024-03-22T03:18:14;6.37;;;5.37;;
16543;SDS011;8384;47.996;7.786;2024-03-22T03:20:40;5.27;;;4.87;;
16543;SDS011;8384;47.996;7.786;2024-03-22T03:23:05;7.00;;;5.00;;
16543;SDS011;8384;47.996;7.786;2024-03-22T03:25:30;4.43;;;4.00;;
16543;SDS011;8384;47.996;7.786;2024-03-22T03:27:55;6.97;;;5.50;;
16543;SDS011;8384;47.996;7.786;2024-03-22T03:30:21;5.77;;;5.10;;
16543;SDS011;8384;47.996;7.786;2024-03-22T03:32:46;5.90;;;5.40;;
16543;SDS011;8384;47.996;7.786;2024-03-22T03:35:11;6.23;;;5.60;;
16543;SDS011;8384;47.996;7.786;2024-03-22T03:37:37;7.83;;;5.00;;
16543;SDS011;8384;47.996;7.786;2024-03-22T03:40:02;6.90;;;4.93;;
16543;SDS011;8384;47.996;7.786;2024-03-22T03:42:28;6.37;;;5.20;;
16543;SDS011;8384;47.996;7.786;2024-03-22T03:44:53;7.73;;;5.10;;
16543;SDS011;8384;47.996;7.786;2024-03-22T03:47:19;5.60;;;4.80;;
16543;SDS011;8384;47.996;7.786;2024-03-22T03:49:47;7.03;;;4.63;;
16543;SDS011;8384;47.996;7.786;2024-03-22T03:52:12;6.33;;;4.67;;
16543;SDS011;8384;47.996;7.786;2024-03-22T03:54:38;5.27;;;4.77;;
16543;SDS011;8384;47.996;7.786;2024-03-22T03:57:03;5.37;;;4.57;;
16543;SDS011;8384;47.996;7.786;2024-03-22T03:59:29;5.93;;;4.60;;
16543;SDS011;8384;47.996;7.786;2024-03-22T04:01:54;4.30;;;3.90;;
16543;SDS011;8384;47.996;7.786;2024-03-22T04:04:20;4.50;;;4.10;;
16543;SDS011;8384;47.996;7.786;2024-03-22T04:06:45;6.70;;;4.37;;
16543;SDS011;8384;47.996;7.786;2024-03-22T04:09:10;4.90;;;4.10;;
16543;SDS011;8384;47.996;7.786;2024-03-22T04:11:35;4.40;;;4.00;;
16543;SDS011;8384;47.996;7.786;2024-03-22T04:14:02;4.83;;;4.40;;
16543;SDS011;8384;47.996;7.786;2024-03-22T04:16:28;5.30;;;4.80;;
16543;SDS011;8384;47.996;7.786;2024-03-22T04:18:53;6.17;;;4.47;;
16543;SDS011;8384;47.996;7.786;2024-03-22T04:21:18;6.13;;;4.13;;
16543;SDS011;8384;47.996;7.786;2024-03-22T04:23:43;8.93;;;4.97;;
16543;SDS011;8384;47.996;7.786;2024-03-22T04:26:09;7.83;;;5.57;;
16543;SDS011;8384;47.996;7.786;2024-03-22T04:28:34;5.53;;;4.07;;
16543;SDS011;8384;47.996;7.786;2024-03-22T04:31:00;4.57;;;4.17;;
16543;SDS011;8384;47.996;7.786;2024-03-22T04:33:27;6.27;;;4.70;;
16543;SDS011;8384;47.996;7.786;2024-03-22T04:35:54;10.93;;;5.67;;
16543;SDS011;8384;47.996;7.786;2024-03-22T04:38:21;6.67;;;4.93;;
16543;SDS011;8384;47.996;7.786;2024-03-22T04:40:46;6.33;;;4.90;;
16543;SDS011;8384;47.996;7.786;2024-03-22T04:43:12;5.30;;;4.80;;
16543;SDS011;8384;47.996;7.786;2024-03-22T04:45:37;6.17;;;4.80;;
16543;SDS011;8384;47.996;7.786;2024-03-22T04:48:03;6.17;;;5.57;;
16543;SDS011;8384;47.996;7.786;2024-03-22T04:50:29;6.90;;;5.13;;
16543;SDS011;8384;47.996;7.786;2024-03-22T04:52:55;6.00;;;5.40;;
16543;SDS011;8384;47.996;7.786;2024-03-22T04:55:21;5.30;;;4.80;;
16543;SDS011;8384;47.996;7.786;2024-03-22T04:57:46;6.10;;;5.40;;
16543;SDS011;8384;47.996;7.786;2024-03-22T05:00:11;6.23;;;4.83;;
16543;SDS011;8384;47.996;7.786;2024-03-22T05:02:37;7.67;;;5.20;;
16543;SDS011;8384;47.996;7.786;2024-03-22T05:05:02;7.63;;;5.37;;
16543;SDS011;8384;47.996;7.786;2024-03-22T05:07:28;5.87;;;5.30;;
16543;SDS011;8384;47.996;7.786;2024-03-22T05:09:53;6.10;;;5.50;;
16543;SDS011;8384;47.996;7.786;2024-03-22T05:12:18;5.50;;;5.00;;
16543;SDS011;8384;47.996;7.786;2024-03-22T05:14:44;6.33;;;5.70;;
16543;SDS011;8384;47.996;7.786;2024-03-22T05:17:09;5.93;;;5.03;;
16543;SDS011;8384;47.996;7.786;2024-03-22T05:19:34;6.20;;;5.60;;
16543;SDS011;8384;47.996;7.786;2024-03-22T05:21:59;6.20;;;5.60;;
16543;SDS011;8384;47.996;7.786;2024-03-22T05:24:25;7.00;;;5.50;;
16543;SDS011;8384;47.996;7.786;2024-03-22T05:26:51;5.77;;;5.20;;
16543;SDS011;8384;47.996;7.786;2024-03-22T05:29:16;7.97;;;6.27;;
16543;SDS011;8384;47.996;7.786;2024-03-22T05:31:48;6.70;;;5.57;;
16543;SDS011;8384;47.996;7.786;2024-03-22T05:34:16;7.03;;;5.60;;
16543;SDS011;8384;47.996;7.786;2024-03-22T05:36:41;5.67;;;5.13;;
16543;SDS011;8384;47.996;7.786;2024-03-22T05:39:06;5.67;;;5.00;;
16543;SDS011;8384;47.996;7.786;2024-03-22T05:41:32;6.00;;;5.30;;
16543;SDS011;8384;47.996;7.786;2024-03-22T05:43:57;8.70;;;5.60;;
16543;SDS011;8384;47.996;7.786;2024-03-22T05:46:22;6.30;;;5.33;;
16543;SDS011;8384;47.996;7.786;2024-03-22T05:48:48;5.93;;;5.00;;
16543;SDS011;8384;47.996;7.786;2024-03-22T05:51:15;7.97;;;5.47;;
16543;SDS011;8384;47.996;7.786;2024-03-22T05:53:40;5.73;;;5.17;;
16543;SDS011;8384;47.996;7.786;2024-03-22T05:56:07;6.22;;;5.60;;
16543;SDS011;8384;47.996;7.786;2024-03-22T05:58:32;6.90;;;5.37;;
16543;SDS011;8384;47.996;7.786;2024-03-22T06:00:58;8.17;;;5.80;;
16543;SDS011;8384;47.996;7.786;2024-03-22T06:03:23;5.63;;;5.10;;
16543;SDS011;8384;47.996;7.786;2024-03-22T06:05:48;5.60;;;5.00;;
16543;SDS011;8384;47.996;7.786;2024-03-22T06:08:14;5.87;;;4.70;;
16543;SDS011;8384;47.996;7.786;2024-03-22T06:10:44;5.43;;;4.93;;
16543;SDS011;8384;47.996;7.786;2024-03-22T06:13:10;7.43;;;5.70;;
16543;SDS011;8384;47.996;7.786;2024-03-22T06:15:35;6.13;;;5.13;;
16543;SDS011;8384;47.996;7.786;2024-03-22T06:18:00;6.07;;;4.97;;
16543;SDS011;8384;47.996;7.786;2024-03-22T06:20:25;5.80;;;5.20;;
16543;SDS011;8384;47.996;7.786;2024-03-22T06:22:50;8.70;;;5.93;;
16543;SDS011;8384;47.996;7.786;2024-03-22T06:25:16;6.93;;;4.67;;
16543;SDS011;8384;47.996;7.786;2024-03-22T06:27:41;5.67;;;5.17;;
16543;SDS011;8384;47.996;7.786;2024-03-22T06:30:06;9.47;;;8.20;;
16543;SDS011;8384;47.996;7.786;2024-03-22T06:32:32;5.60;;;4.90;;
16543;SDS011;8384;47.996;7.786;2024-03-22T06:34:57;6.63;;;4.43;;
16543;SDS011;8384;47.996;7.786;2024-03-22T06:37:23;6.67;;;5.03;;
16543;SDS011;8384;47.996;7.786;2024-03-22T06:39:48;5.50;;;4.77;;
16543;SDS011;8384;47.996;7.786;2024-03-22T06:42:13;5.87;;;4.70;;
16543;SDS011;8384;47.996;7.786;2024-03-22T06:44:39;4.90;;;4.30;;
16543;SDS011;8384;47.996;7.786;2024-03-22T06:47:04;6.80;;;5.20;;
16543;SDS011;8384;47.996;7.786;2024-03-22T06:49:29;5.37;;;4.87;;
16543;SDS011;8384;47.996;7.786;2024-03-22T06:51:54;5.43;;;4.77;;
16543;SDS011;8384;47.996;7.786;2024-03-22T06:54:20;6.23;;;5.53;;
16543;SDS011;8384;47.996;7.786;2024-03-22T06:56:45;7.73;;;5.33;;
16543;SDS011;8384;47.996;7.786;2024-03-22T06:59:10;6.53;;;4.97;;
16543;SDS011;8384;47.996;7.786;2024-03-22T07:01:35;6.93;;;4.93;;
16543;SDS011;8384;47.996;7.786;2024-03-22T07:04:01;5.30;;;4.80;;
16543;SDS011;8384;47.996;7.786;2024-03-22T07:06:26;5.33;;;4.80;;
16543;SDS011;8384;47.996;7.786;2024-03-22T07:08:51;5.00;;;4.50;;
16543;SDS011;8384;47.996;7.786;2024-03-22T07:11:16;5.20;;;4.70;;
16543;SDS011;8384;47.996;7.786;2024-03-22T07:13:42;6.80;;;4.60;;
16543;SDS011;8384;47.996;7.786;2024-03-22T07:16:07;6.53;;;4.27;;
16543;SDS011;8384;47.996;7.786;2024-03-22T07:18:32;4.30;;;3.97;;
16543;SDS011;8384;47.996;7.786;2024-03-22T07:20:57;5.03;;;4.40;;
16543;SDS011;8384;47.996;7.786;2024-03-22T07:23:26;5.07;;;4.03;;
16543;SDS011;8384;47.996;7.786;2024-03-22T07:25:51;5.27;;;3.93;;
16543;SDS011;8384;47.996;7.786;2024-03-22T07:28:17;4.80;;;4.20;;
16543;SDS011;8384;47.996;7.786;2024-03-22T07:30:42;5.20;;;4.40;;
16543;SDS011;8384;47.996;7.786;2024-03-22T07:33:07;5.23;;;4.53;;
16543;SDS011;8384;47.996;7.786;2024-03-22T07:35:34;4.33;;;3.80;;
16543;SDS011;8384;47.996;7.786;2024-03-22T07:37:59;5.30;;;4.27;;
16543;SDS011;8384;47.996;7.786;2024-03-22T07:40:25;4.60;;;4.00;;
16543;SDS011;8384;47.996;7.786;2024-03-22T07:42:50;5.83;;;4.00;;
16543;SDS011;8384;47.996;7.786;2024-03-22T07:45:16;5.10;;;4.50;;
16543;SDS011;8384;47.996;7.786;2024-03-22T07:47:41;6.23;;;3.73;;
16543;SDS011;8384;47.996;7.786;2024-03-22T07:50:08;4.20;;;3.70;;
16543;SDS011;8384;47.996;7.786;2024-03-22T07:52:34;5.70;;;3.93;;
16543;SDS011;8384;47.996;7.786;2024-03-22T07:54:59;5.80;;;4.40;;
16543;SDS011;8384;47.996;7.786;2024-03-22T07:57:27;4.60;;;4.20;;
16543;SDS011;8384;47.996;7.786;2024-03-22T07:59:52;4.67;;;4.23;;
16543;SDS011;8384;47.996;7.786;2024-03-22T08:02:17;6.07;;;4.67;;
16543;SDS011;8384;47.996;7.786;2024-03-22T08:04:42;4.83;;;4.43;;
16543;SDS011;8384;47.996;7.786;2024-03-22T08:07:08;6.37;;;4.60;;
16543;SDS011;8384;47.996;7.786;2024-03-22T08:09:33;4.93;;;4.20;;
16543;SDS011;8384;47.996;7.786;2024-03-22T08:11:59;7.23;;;4.73;;
16543;SDS011;8384;47.996;7.786;2024-03-22T08:14:24;6.30;;;5.20;;
16543;SDS011;8384;47.996;7.786;2024-03-22T08:16:49;6.23;;;5.10;;
16543;SDS011;8384;47.996;7.786;2024-03-22T08:19:14;6.60;;;5.37;;
16543;SDS011;8384;47.996;7.786;2024-03-22T08:21:40;9.47;;;5.87;;
16543;SDS011;8384;47.996;7.786;2024-03-22T08:24:05;7.07;;;6.03;;
16543;SDS011;8384;47.996;7.786;2024-03-22T08:26:30;6.30;;;5.57;;
16543;SDS011;8384;47.996;7.786;2024-03-22T08:28:56;7.30;;;5.33;;
16543;SDS011;8384;47.996;7.786;2024-03-22T08:31:21;6.03;;;5.47;;
16543;SDS011;8384;47.996;7.786;2024-03-22T08:33:50;10.10;;;6.00;;
16543;SDS011;8384;47.996;7.786;2024-03-22T08:36:16;8.60;;;5.60;;
16543;SDS011;8384;47.996;7.786;2024-03-22T08:38:41;7.33;;;5.50;;
16543;SDS011;8384;47.996;7.786;2024-03-22T08:41:07;6.77;;;6.00;;
16543;SDS011;8384;47.996;7.786;2024-03-22T08:43:32;7.07;;;5.63;;
16543;SDS011;8384;47.996;7.786;2024-03-22T08:45:57;6.70;;;5.60;;
16543;SDS011;8384;47.996;7.786;2024-03-22T08:48:23;5.83;;;5.20;;
16543;SDS011;8384;47.996;7.786;2024-03-22T08:50:48;7.73;;;5.53;;
16543;SDS011;8384;47.996;7.786;2024-03-22T08:53:13;6.20;;;5.60;;
16543;SDS011;8384;47.996;7.786;2024-03-22T08:55:44;6.10;;;5.60;;
16543;SDS011;8384;47.996;7.786;2024-03-22T08:58:10;9.07;;;5.40;;
16543;SDS011;8384;47.996;7.786;2024-03-22T09:00:35;5.80;;;5.20;;
16543;SDS011;8384;47.996;7.786;2024-03-22T09:03:02;6.13;;;5.43;;
16543;SDS011;8384;47.996;7.786;2024-03-22T09:05:28;5.93;;;5.03;;
16543;SDS011;8384;47.996;7.786;2024-03-22T09:07:53;5.30;;;4.80;;
16543;SDS011;8384;47.996;7.786;2024-03-22T09:10:20;6.13;;;5.20;;
16543;SDS011;8384;47.996;7.786;2024-03-22T09:12:46;7.17;;;5.00;;
16543;SDS011;8384;47.996;7.786;2024-03-22T09:15:11;4.30;;;3.90;;
16543;SDS011;8384;47.996;7.786;2024-03-22T09:17:36;4.40;;;4.00;;
16543;SDS011;8384;47.996;7.786;2024-03-22T09:20:01;4.87;;;3.40;;
16543;SDS011;8384;47.996;7.786;2024-03-22T09:22:29;6.57;;;3.90;;
16543;SDS011;8384;47.996;7.786;2024-03-22T09:24:54;4.83;;;3.70;;
16543;SDS011;8384;47.996;7.786;2024-03-22T09:27:19;5.97;;;3.77;;
16543;SDS011;8384;47.996;7.786;2024-03-22T09:29:45;5.40;;;2.97;;
16543;SDS011;8384;47.996;7.786;2024-03-22T09:32:10;3.90;;;3.50;;
16543;SDS011;8384;47.996;7.786;2024-03-22T09:34:35;4.03;;;3.63;;
16543;SDS011;8384;47.996;7.786;2024-03-22T09:37:01;3.77;;;3.30;;
16543;SDS011;8384;47.996;7.786;2024-03-22T09:39:26;5.00;;;3.40;;
16543;SDS011;8384;47.996;7.786;2024-03-22T09:41:52;6.17;;;3.30;;
16543;SDS011;8384;47.996;7.786;2024-03-22T09:44:22;4.00;;;3.30;;
16543;SDS011;8384;47.996;7.786;2024-03-22T09:46:48;5.07;;;3.10;;
16543;SDS011;8384;47.996;7.786;2024-03-22T09:49:15;6.70;;;3.40;;
16543;SDS011;8384;47.996;7.786;2024-03-22T09:51:41;3.93;;;3.50;;
16543;SDS011;8384;47.996;7.786;2024-03-22T09:54:09;4.20;;;3.80;;
16543;SDS011;8384;47.996;7.786;2024-03-22T09:56:34;5.33;;;3.40;;
16543;SDS011;8384;47.996;7.786;2024-03-22T09:59:00;9.10;;;3.73;;
16543;SDS011;8384;47.996;7.786;2024-03-22T10:01:26;3.80;;;3.27;;
16543;SDS011;8384;47.996;7.786;2024-03-22T10:03:51;5.70;;;3.90;;
16543;SDS011;8384;47.996;7.786;2024-03-22T10:06:17;5.33;;;4.00;;
16543;SDS011;8384;47.996;7.786;2024-03-22T10:08:43;5.83;;;4.27;;
16543;SDS011;8384;47.996;7.786;2024-03-22T10:11:09;5.07;;;4.00;;
16543;SDS011;8384;47.996;7.786;2024-03-22T10:13:34;5.90;;;4.53;;
16543;SDS011;8384;47.996;7.786;2024-03-22T10:15:59;6.83;;;4.97;;
16543;SDS011;8384;47.996;7.786;2024-03-22T10:18:25;5.63;;;5.17;;
16543;SDS011;8384;47.996;7.786;2024-03-22T10:20:58;6.17;;;4.90;;
16543;SDS011;8384;47.996;7.786;2024-03-22T10:23:28;5.27;;;4.20;;
16543;SDS011;8384;47.996;7.786;2024-03-22T10:25:56;5.37;;;4.27;;
16543;SDS011;8384;47.996;7.786;2024-03-22T10:28:25;5.10;;;4.60;;
16543;SDS011;8384;47.996;7.786;2024-03-22T10:30:51;5.73;;;4.47;;
16543;SDS011;8384;47.996;7.786;2024-03-22T10:33:19;4.30;;;3.90;;
16543;SDS011;8384;47.996;7.786;2024-03-22T10:35:47;6.10;;;4.63;;
16543;SDS011;8384;47.996;7.786;2024-03-22T10:38:18;4.53;;;4.03;;
16543;SDS011;8384;47.996;7.786;2024-03-22T10:40:44;4.50;;;4.10;;
16543;SDS011;8384;47.996;7.786;2024-03-22T10:43:14;5.73;;;4.97;;
16543;SDS011;8384;47.996;7.786;2024-03-22T10:45:40;5.80;;;4.43;;
16543;SDS011;8384;47.996;7.786;2024-03-22T10:48:10;4.70;;;4.20;;
16543;SDS011;8384;47.996;7.786;2024-03-22T10:50:39;4.80;;;3.77;;
16543;SDS011;8384;47.996;7.786;2024-03-22T10:53:18;6.17;;;3.97;;
16543;SDS011;8384;47.996;7.786;2024-03-22T10:55:49;5.07;;;3.90;;
16543;SDS011;8384;47.996;7.786;2024-03-22T10:58:16;4.63;;;4.23;;
16543;SDS011;8384;47.996;7.786;2024-03-22T11:00:45;3.80;;;3.40;;
16543;SDS011;8384;47.996;7.786;2024-03-22T11:03:10;3.83;;;3.37;;
16543;SDS011;8384;47.996;7.786;2024-03-22T11:05:47;3.60;;;3.30;;
16543;SDS011;8384;47.996;7.786;2024-03-22T11:08:13;4.10;;;3.07;;
16543;SDS011;8384;47.996;7.786;2024-03-22T11:10:38;3.60;;;3.30;;
16543;SDS011;8384;47.996;7.786;2024-03-22T11:13:04;4.10;;;3.70;;
16543;SDS011;8384;47.996;7.786;2024-03-22T11:15:34;4.47;;;3.17;;
16543;SDS011;8384;47.996;7.786;2024-03-22T11:18:03;3.47;;;2.53;;
16543;SDS011;8384;47.996;7.786;2024-03-22T11:20:44;4.03;;;2.70;;
16543;SDS011;8384;47.996;7.786;2024-03-22T11:23:10;3.73;;;2.53;;
16543;SDS011;8384;47.996;7.786;2024-03-22T11:25:35;2.30;;;2.10;;
16543;SDS011;8384;47.996;7.786;2024-03-22T11:28:01;2.50;;;2.30;;
16543;SDS011;8384;47.996;7.786;2024-03-22T11:30:30;2.30;;;2.00;;
16543;SDS011;8384;47.996;7.786;2024-03-22T11:32:57;3.47;;;2.30;;
16543;SDS011;8384;47.996;7.786;2024-03-22T11:35:30;2.10;;;1.90;;
16543;SDS011;8384;47.996;7.786;2024-03-22T11:37:58;1.87;;;1.63;;
16543;SDS011;8384;47.996;7.786;2024-03-22T11:40:24;2.10;;;1.60;;
16543;SDS011;8384;47.996;7.786;2024-03-22T11:42:51;2.13;;;1.97;;
16543;SDS011;8384;47.996;7.786;2024-03-22T11:45:19;3.10;;;1.83;;
16543;SDS011;8384;47.996;7.786;2024-03-22T11:47:48;1.70;;;1.60;;
16543;SDS011;8384;47.996;7.786;2024-03-22T11:50:16;2.67;;;1.87;;
16543;SDS011;8384;47.996;7.786;2024-03-22T11:52:42;2.13;;;1.60;;
16543;SDS011;8384;47.996;7.786;2024-03-22T11:55:08;1.67;;;1.57;;
16543;SDS011;8384;47.996;7.786;2024-03-22T11:57:34;1.57;;;1.37;;
16543;SDS011;8384;47.996;7.786;2024-03-22T12:00:00;2.10;;;1.00;;
16543;SDS011;8384;47.996;7.786;2024-03-22T12:02:28;1.47;;;1.10;;
16543;SDS011;8384;47.996;7.786;2024-03-22T12:04:59;0.87;;;0.80;;
16543;SDS011;8384;47.996;7.786;2024-03-22T12:07:25;1.30;;;0.77;;
16543;SDS011;8384;47.996;7.786;2024-03-22T12:09:53;1.87;;;0.90;;
16543;SDS011;8384;47.996;7.786;2024-03-22T12:12:20;0.63;;;0.63;;
16543;SDS011;8384;47.996;7.786;2024-03-22T12:14:49;1.60;;;0.80;;
16543;SDS011;8384;47.996;7.786;2024-03-22T12:17:17;0.80;;;0.80;;
16543;SDS011;8384;47.996;7.786;2024-03-22T12:19:43;1.53;;;0.87;;
16543;SDS011;8384;47.996;7.786;2024-03-22T12:22:09;3.20;;;0.90;;
16543;SDS011;8384;47.996;7.786;2024-03-22T12:24:37;1.47;;;1.00;;
16543;SDS011;8384;47.996;7.786;2024-03-22T12:27:03;1.67;;;0.90;;
16543;SDS011;8384;47.996;7.786;2024-03-22T12:29:31;1.90;;;0.90;;
16543;SDS011;8384;47.996;7.786;2024-03-22T12:32:04;1.87;;;0.93;;
16543;SDS011;8384;47.996;7.786;2024-03-22T12:34:44;2.40;;;0.90;;
16543;SDS011;8384;47.996;7.786;2024-03-22T12:37:09;1.87;;;0.90;;
16543;SDS011;8384;47.996;7.786;2024-03-22T12:39:34;0.70;;;0.70;;
16543;SDS011;8384;47.996;7.786;2024-03-22T12:42:00;3.77;;;1.50;;
16543;SDS011;8384;47.996;7.786;2024-03-22T12:44:32;3.13;;;1.30;;
16543;SDS011;8384;47.996;7.786;2024-03-22T12:46:57;1.40;;;1.30;;
16543;SDS011;8384;47.996;7.786;2024-03-22T12:49:23;2.90;;;2.60;;
16543;SDS011;8384;47.996;7.786;2024-03-22T12:51:49;2.50;;;1.77;;
16543;SDS011;8384;47.996;7.786;2024-03-22T12:54:14;2.10;;;1.50;;
16543;SDS011;8384;47.996;7.786;2024-03-22T12:56:43;1.97;;;1.67;;
16543;SDS011;8384;47.996;7.786;2024-03-22T12:59:12;2.60;;;1.60;;
16543;SDS011;8384;47.996;7.786;2024-03-22T13:01:38;1.87;;;1.23;;
16543;SDS011;8384;47.996;7.786;2024-03-22T13:04:06;1.40;;;1.20;;
16543;SDS011;8384;47.996;7.786;2024-03-22T13:06:31;4.10;;;1.60;;
16543;SDS011;8384;47.996;7.786;2024-03-22T13:09:02;3.43;;;3.00;;
16543;SDS011;8384;47.996;7.786;2024-03-22T13:11:32;2.00;;;1.80;;
16543;SDS011;8384;47.996;7.786;2024-03-22T13:13:57;1.97;;;1.87;;
16543;SDS011;8384;47.996;7.786;2024-03-22T13:16:25;3.13;;;1.30;;
16543;SDS011;8384;47.996;7.786;2024-03-22T13:18:52;2.90;;;1.20;;
16543;SDS011;8384;47.996;7.786;2024-03-22T13:21:21;2.77;;;1.20;;
16543;SDS011;8384;47.996;7.786;2024-03-22T13:23:53;2.13;;;1.20;;
16543;SDS011;8384;47.996;7.786;2024-03-22T13:26:18;2.03;;;1.40;;
16543;SDS011;8384;47.996;7.786;2024-03-22T13:28:44;1.70;;;1.20;;
16543;SDS011;8384;47.996;7.786;2024-03-22T13:31:12;3.03;;;1.30;;
16543;SDS011;8384;47.996;7.786;2024-03-22T13:33:37;2.03;;;1.20;;
16543;SDS011;8384;47.996;7.786;2024-03-22T13:36:03;2.17;;;1.20;;
16543;SDS011;8384;47.996;7.786;2024-03-22T13:38:32;1.67;;;0.90;;
16543;SDS011;8384;47.996;7.786;2024-03-22T13:40:58;1.70;;;1.20;;
16543;SDS011;8384;47.996;7.786;2024-03-22T13:43:25;1.10;;;1.00;;
16543;SDS011;8384;47.996;7.786;2024-03-22T13:45:52;2.10;;;1.00;;
16543;SDS011;8384;47.996;7.786;2024-03-22T13:48:21;1.30;;;1.20;;
16543;SDS011;8384;47.996;7.786;2024-03-22T13:50:52;1.17;;;1.00;;
16543;SDS011;8384;47.996;7.786;2024-03-22T13:53:18;2.60;;;0.83;;
16543;SDS011;8384;47.996;7.786;2024-03-22T13:55:46;1.90;;;1.10;;
16543;SDS011;8384;47.996;7.786;2024-03-22T13:58:12;2.20;;;1.00;;
16543;SDS011;8384;47.996;7.786;2024-03-22T14:00:37;1.10;;;0.90;;
16543;SDS011;8384;47.996;7.786;2024-03-22T14:03:03;1.73;;;1.00;;
16543;SDS011;8384;47.996;7.786;2024-03-22T14:05:28;3.63;;;1.87;;
16543;SDS011;8384;47.996;7.786;2024-03-22T14:07:54;1.73;;;1.30;;
16543;SDS011;8384;47.996;7.786;2024-03-22T14:10:26;2.10;;;0.93;;
16543;SDS011;8384;47.996;7.786;2024-03-22T14:12:55;1.17;;;0.80;;
16543;SDS011;8384;47.996;7.786;2024-03-22T14:15:20;1.00;;;0.90;;
16543;SDS011;8384;47.996;7.786;2024-03-22T14:17:57;1.60;;;0.90;;
16543;SDS011;8384;47.996;7.786;2024-03-22T14:20:25;1.17;;;0.87;;
16543;SDS011;8384;47.996;7.786;2024-03-22T14:22:50;2.40;;;0.93;;
16543;SDS011;8384;47.996;7.786;2024-03-22T14:25:16;1.23;;;0.90;;
16543;SDS011;8384;47.996;7.786;2024-03-22T14:27:44;1.77;;;0.80;;
16543;SDS011;8384;47.996;7.786;2024-03-22T14:30:13;1.77;;;0.83;;
16543;SDS011;8384;47.996;7.786;2024-03-22T14:32:40;1.30;;;0.70;;
16543;SDS011;8384;47.996;7.786;2024-03-22T14:35:11;1.37;;;0.90;;
16543;SDS011;8384;47.996;7.786;2024-03-22T14:37:40;1.10;;;0.90;;
16543;SDS011;8384;47.996;7.786;2024-03-22T14:40:08;1.40;;;0.90;;
16543;SDS011;8384;47.996;7.786;2024-03-22T14:42:45;0.90;;;0.90;;
16543;SDS011;8384;47.996;7.786;2024-03-22T14:45:10;1.90;;;1.10;;
16543;SDS011;8384;47.996;7.786;2024-03-22T14:47:36;1.10;;;0.90;;
16543;SDS011;8384;47.996;7.786;2024-03-22T14:50:02;1.30;;;1.03;;
16543;SDS011;8384;47.996;7.786;2024-03-22T14:52:27;1.67;;;1.27;;
16543;SDS011;8384;47.996;7.786;2024-03-22T14:54:58;2.93;;;1.27;;